createdAt,value
2023-06-11T00:00:39.369Z,98826.84
2023-06-11T00:03:48.470Z,98823.06
2023-06-11T00:06:53.550Z,98830.06
2023-06-11T00:09:57.527Z,98823.09
2023-06-11T00:13:01.570Z,98826.25
2023-06-11T00:16:05.802Z,98826.13
2023-06-11T00:19:11.347Z,98828.09
2023-06-11T00:22:16.400Z,98821.97
2023-06-11T00:25:20.646Z,98827.66
2023-06-11T00:28:24.729Z,98822.00
2023-06-11T00:31:28.818Z,98829.03
2023-06-11T00:34:34.468Z,98828.78
2023-06-11T00:37:38.823Z,98829.84
2023-06-11T00:40:43.889Z,98827.13
2023-06-11T00:43:50.406Z,98833.88
2023-06-11T00:46:55.608Z,98829.25
2023-06-11T00:50:01.429Z,98831.09
2023-06-11T00:53:05.639Z,98838.03
2023-06-11T00:56:13.040Z,98834.69
2023-06-11T00:59:21.210Z,98839.56
2023-06-11T01:02:29.658Z,98843.94
2023-06-11T01:05:44.405Z,98842.66
2023-06-11T01:08:54.555Z,98843.25
2023-06-11T01:12:03.994Z,98846.59
2023-06-11T01:15:14.664Z,98843.59
2023-06-11T01:18:20.697Z,98844.50
2023-06-11T01:21:31.886Z,98840.47
2023-06-11T01:24:54.895Z,98835.16
2023-06-11T01:28:07.396Z,98837.38
2023-06-11T01:31:16.298Z,98841.06
2023-06-11T01:34:20.685Z,98850.63
2023-06-11T01:37:24.856Z,98847.59
2023-06-11T01:40:29.846Z,98846.44
2023-06-11T01:43:37.706Z,98848.66
2023-06-11T01:46:42.023Z,98848.09
2023-06-11T01:49:46.295Z,98846.03
2023-06-11T01:52:51.454Z,98853.53
2023-06-11T01:55:58.217Z,98853.88
2023-06-11T01:59:04.552Z,98861.72
2023-06-11T02:02:11.126Z,98857.31
2023-06-11T02:05:15.427Z,98870.28
2023-06-11T02:08:19.516Z,98867.63
2023-06-11T02:11:23.515Z,98864.94
2023-06-11T02:14:29.260Z,98857.56
2023-06-11T02:17:33.253Z,98869.41
2023-06-11T02:20:37.649Z,98870.44
2023-06-11T02:23:41.813Z,98863.28
2023-06-11T02:26:45.963Z,98867.13
2023-06-11T02:29:51.848Z,98862.50
2023-06-11T02:32:56.366Z,98865.97
2023-06-11T02:36:00.524Z,98863.63
2023-06-11T02:39:04.835Z,98868.28
2023-06-11T02:42:09.395Z,98861.47
2023-06-11T02:45:15.258Z,98865.72
2023-06-11T02:48:19.306Z,98855.56
2023-06-11T02:51:23.466Z,98865.28
2023-06-11T02:54:27.470Z,98864.16
2023-06-11T02:57:32.345Z,98865.63
2023-06-11T03:00:38.039Z,98873.03
2023-06-11T03:03:42.362Z,98876.84
2023-06-11T03:06:48.211Z,98874.63
2023-06-11T03:09:52.516Z,98880.88
2023-06-11T03:12:56.698Z,98876.38
2023-06-11T03:16:02.629Z,98882.56
2023-06-11T03:19:06.897Z,98884.22
2023-06-11T03:22:11.404Z,98888.06
2023-06-11T03:25:15.827Z,98891.63
2023-06-11T03:28:20.366Z,98889.78
2023-06-11T03:31:26.130Z,98884.13
2023-06-11T03:34:30.536Z,98885.16
2023-06-11T03:37:37.027Z,98882.25
2023-06-11T03:40:41.270Z,98887.34
2023-06-11T03:43:45.962Z,98882.25
2023-06-11T03:46:52.578Z,98885.50
2023-06-11T03:49:56.676Z,98882.94
2023-06-11T03:53:00.958Z,98880.66
2023-06-11T03:56:05.942Z,98880.41
2023-06-11T03:59:10.006Z,98884.09
2023-06-11T04:02:15.911Z,98879.53
2023-06-11T04:05:20.763Z,98883.34
2023-06-11T04:08:31.382Z,98888.09
2023-06-11T04:11:35.844Z,98882.59
2023-06-11T04:14:40.343Z,98889.59
2023-06-11T04:17:46.490Z,98886.59
2023-06-11T04:20:50.598Z,98885.94
2023-06-11T04:23:56.845Z,98887.81
2023-06-11T04:27:01.271Z,98891.00
2023-06-11T04:30:06.128Z,98879.94
2023-06-11T04:33:11.797Z,98875.84
2023-06-11T04:36:16.877Z,98877.06
2023-06-11T04:39:21.524Z,98888.66
2023-06-11T04:42:26.166Z,98888.34
2023-06-11T04:45:31.893Z,98888.53
2023-06-11T04:48:39.475Z,98888.13
2023-06-11T04:51:43.879Z,98888.28
2023-06-11T04:54:48.106Z,98884.88
2023-06-11T04:57:53.144Z,98886.47
2023-06-11T05:00:58.926Z,98889.09
2023-06-11T05:04:04.673Z,98889.88
2023-06-11T05:07:09.167Z,98893.25
2023-06-11T05:10:15.383Z,98890.41
2023-06-11T05:13:23.773Z,98888.66
2023-06-11T05:16:27.994Z,98884.81
2023-06-11T05:19:34.731Z,98884.34
2023-06-11T05:22:39.070Z,98890.00
2023-06-11T05:25:48.565Z,98888.75
2023-06-11T05:28:55.530Z,98889.72
2023-06-11T05:32:01.898Z,98895.19
2023-06-11T05:35:09.858Z,98902.81
2023-06-11T05:38:15.168Z,98901.41
2023-06-11T05:41:20.388Z,98909.44
2023-06-11T05:44:24.786Z,98908.47
2023-06-11T05:47:29.128Z,98904.34
2023-06-11T05:50:34.993Z,98906.91
2023-06-11T05:53:39.986Z,98906.25
2023-06-11T05:56:44.851Z,98904.28
2023-06-11T05:59:49.993Z,98909.13
2023-06-11T06:02:55.752Z,98903.47
2023-06-11T06:06:06.735Z,98903.34
2023-06-11T06:09:10.985Z,98901.16
2023-06-11T06:12:15.050Z,98908.03
2023-06-11T06:15:19.605Z,98904.56
2023-06-11T06:18:24.154Z,98910.13
2023-06-11T06:21:29.905Z,98907.75
2023-06-11T06:24:34.457Z,98905.28
2023-06-11T06:27:39.074Z,98907.00
2023-06-11T06:30:46.237Z,98916.63
2023-06-11T06:33:50.987Z,98902.75
2023-06-11T06:36:57.778Z,98907.50
2023-06-11T06:40:02.165Z,98908.34
2023-06-11T06:43:06.533Z,98899.53
2023-06-11T06:46:12.290Z,98902.31
2023-06-11T06:49:17.351Z,98903.78
2023-06-11T06:52:23.938Z,98901.59
2023-06-11T06:55:28.300Z,98907.47
2023-06-11T06:58:39.553Z,98899.59
2023-06-11T07:01:44.073Z,98903.91
2023-06-11T07:04:49.968Z,98894.81
2023-06-11T07:07:56.830Z,98895.38
2023-06-11T07:11:01.789Z,98898.31
2023-06-11T07:14:24.199Z,98898.66
2023-06-11T07:17:29.175Z,98898.31
2023-06-11T07:20:34.458Z,98898.03
2023-06-11T07:23:40.301Z,98893.00
2023-06-11T07:26:45.421Z,98887.31
2023-06-11T07:29:50.542Z,98895.09
2023-06-11T07:32:55.878Z,98889.44
2023-06-11T07:36:01.037Z,98895.63
2023-06-11T07:39:07.182Z,98904.09
2023-06-11T07:42:11.787Z,98891.22
2023-06-11T07:45:16.875Z,98896.41
2023-06-11T07:48:21.173Z,98890.19
2023-06-11T07:51:27.117Z,98893.31
2023-06-11T07:54:39.147Z,98888.81
2023-06-11T07:57:43.496Z,98893.16
2023-06-11T08:00:47.646Z,98892.00
2023-06-11T08:03:51.993Z,98896.16
2023-06-11T08:06:56.252Z,98892.78
2023-06-11T08:10:01.846Z,98892.06
2023-06-11T08:13:06.233Z,98889.50
2023-06-11T08:16:10.531Z,98884.66
2023-06-11T08:19:14.787Z,98886.03
2023-06-11T08:22:18.950Z,98883.63
2023-06-11T08:25:24.484Z,98887.19
2023-06-11T08:28:29.645Z,98883.13
2023-06-11T08:31:34.107Z,98892.81
2023-06-11T08:34:38.367Z,98885.56
2023-06-11T08:37:42.604Z,98885.94
2023-06-11T08:40:48.335Z,98881.44
2023-06-11T08:43:52.764Z,98891.38
2023-06-11T08:46:58.707Z,98894.72
2023-06-11T08:50:04.410Z,98894.66
2023-06-11T08:53:09.622Z,98894.56
2023-06-11T08:56:15.412Z,98882.56
2023-06-11T08:59:20.538Z,98878.81
2023-06-11T09:02:27.327Z,98884.97
2023-06-11T09:05:31.580Z,98876.22
2023-06-11T09:08:35.846Z,98872.97
2023-06-11T09:11:41.702Z,98871.38
2023-06-11T09:14:54.331Z,98868.91
2023-06-11T09:17:58.467Z,98851.19
2023-06-11T09:21:02.879Z,98855.69
2023-06-11T09:24:11.074Z,98864.44
2023-06-11T09:27:17.532Z,98859.41
2023-06-11T09:30:22.743Z,98857.91
2023-06-11T09:33:27.540Z,98852.13
2023-06-11T09:36:32.834Z,98852.81
2023-06-11T09:39:37.215Z,98854.03
2023-06-11T09:42:45.100Z,98846.81
2023-06-11T09:45:54.194Z,98846.47
2023-06-11T09:48:59.039Z,98834.91
2023-06-11T09:52:04.922Z,98834.84
2023-06-11T09:55:11.053Z,98832.50
2023-06-11T09:58:18.346Z,98829.84
2023-06-11T10:01:22.764Z,98832.31
2023-06-11T10:04:27.016Z,98830.38
2023-06-11T10:07:34.018Z,98826.53
2023-06-11T10:10:43.579Z,98832.81
2023-06-11T10:13:58.881Z,98822.72
2023-06-11T10:17:04.109Z,98815.34
2023-06-11T10:20:18.691Z,98818.53
2023-06-11T10:23:23.268Z,98809.63
2023-06-11T10:26:36.294Z,98816.25
2023-06-11T10:29:43.787Z,98808.34
2023-06-11T10:32:52.462Z,98813.28
2023-06-11T10:36:03.879Z,98818.00
2023-06-11T10:39:10.459Z,98823.13
2023-06-11T10:42:14.793Z,98813.00
2023-06-11T10:45:20.357Z,98820.25
2023-06-11T10:48:30.530Z,98818.63
2023-06-11T10:51:42.200Z,98813.69
2023-06-11T10:54:51.621Z,98811.78
2023-06-11T10:57:56.240Z,98810.47
2023-06-11T11:01:02.193Z,98805.66
2023-06-11T11:04:07.308Z,98803.84
2023-06-11T11:07:11.696Z,98809.50
2023-06-11T11:10:20.911Z,98811.50
2023-06-11T11:13:25.223Z,98794.44
2023-06-11T11:16:31.570Z,98803.19
2023-06-11T11:19:37.403Z,98811.47
2023-06-11T11:22:41.709Z,98817.38
2023-06-11T11:25:45.997Z,98819.00
2023-06-11T11:28:50.124Z,98808.72
2023-06-11T11:31:56.102Z,98797.00
2023-06-11T11:35:02.043Z,98798.63
2023-06-11T11:38:06.228Z,98793.28
2023-06-11T11:41:11.544Z,98797.78
2023-06-11T11:44:17.397Z,98806.94
2023-06-11T11:47:24.070Z,98801.31
2023-06-11T11:50:31.654Z,98797.75
2023-06-11T11:53:36.166Z,98809.78
2023-06-11T11:56:41.114Z,98807.81
2023-06-11T11:59:45.428Z,98800.81
2023-06-11T12:02:51.126Z,98802.03
2023-06-11T12:06:00.256Z,98800.72
2023-06-11T12:09:04.552Z,98804.47
2023-06-11T12:12:10.113Z,98803.91
2023-06-11T12:15:14.522Z,98797.00
2023-06-11T12:18:20.265Z,98799.16
2023-06-11T12:21:24.799Z,98808.41
2023-06-11T12:24:30.668Z,98799.41
2023-06-11T12:27:34.993Z,98802.75
2023-06-11T12:30:39.181Z,98794.25
2023-06-11T12:33:44.767Z,98794.31
2023-06-11T12:36:50.265Z,98800.59
2023-06-11T12:39:54.645Z,98799.38
2023-06-11T12:43:00.833Z,98798.88
2023-06-11T12:46:05.262Z,98798.53
2023-06-11T12:49:10.913Z,98798.09
2023-06-11T12:52:15.321Z,98820.50
2023-06-11T12:55:19.726Z,98821.56
2023-06-11T12:58:24.576Z,98827.75
2023-06-11T13:01:28.769Z,98838.56
2023-06-11T13:04:34.567Z,98847.88
2023-06-11T13:07:39.017Z,98851.19
2023-06-11T13:10:43.340Z,98847.38
2023-06-11T13:13:47.797Z,98849.72
2023-06-11T13:16:53.100Z,98849.91
2023-06-11T13:19:58.879Z,98846.22
2023-06-11T13:23:02.987Z,98853.59
2023-06-11T13:26:07.408Z,98856.84
2023-06-11T13:29:11.612Z,98858.47
2023-06-11T13:32:16.467Z,98849.72
2023-06-11T13:35:22.229Z,98857.78
2023-06-11T13:38:27.673Z,98856.50
2023-06-11T13:41:31.919Z,98857.88
2023-06-11T13:44:36.230Z,98852.06
2023-06-11T13:47:40.417Z,98851.28
2023-06-11T13:50:48.635Z,98852.25
2023-06-11T13:53:52.674Z,98854.34
2023-06-11T13:56:57.719Z,98858.13
2023-06-11T14:00:02.338Z,98856.00
2023-06-11T14:03:16.607Z,98858.34
2023-06-11T14:06:22.994Z,98856.09
2023-06-11T14:09:27.200Z,98858.50
2023-06-11T14:12:31.320Z,98860.75
2023-06-11T14:15:35.530Z,98859.03
2023-06-11T14:18:39.744Z,98848.59
2023-06-11T14:21:45.394Z,98859.63
2023-06-11T14:24:49.539Z,98857.41
2023-06-11T14:27:53.740Z,98868.00
2023-06-11T14:30:57.869Z,98856.34
2023-06-11T14:34:02.054Z,98861.44
2023-06-11T14:37:08.441Z,98862.63
2023-06-11T14:40:13.530Z,98861.22
2023-06-11T14:43:18.054Z,98863.22
2023-06-11T14:46:23.216Z,98860.63
2023-06-11T14:49:27.381Z,98868.94
2023-06-11T14:52:32.952Z,98863.72
2023-06-11T14:55:37.061Z,98859.66
2023-06-11T14:58:41.153Z,98854.56
2023-06-11T15:01:45.735Z,98848.41
2023-06-11T15:04:50.316Z,98845.38
2023-06-11T15:07:55.988Z,98858.34
2023-06-11T15:11:00.240Z,98858.69
2023-06-11T15:14:05.191Z,98862.13
2023-06-11T15:17:09.426Z,98856.56
2023-06-11T15:20:14.769Z,98846.34
2023-06-11T15:23:20.740Z,98844.72
2023-06-11T15:26:24.898Z,98849.00
2023-06-11T15:29:29.260Z,98857.03
2023-06-11T15:32:33.512Z,98860.03
2023-06-11T15:35:37.760Z,98851.22
2023-06-11T15:38:43.389Z,98853.06
2023-06-11T15:41:47.539Z,98855.72
2023-06-11T15:44:51.849Z,98860.59
2023-06-11T15:47:56.935Z,98868.34
2023-06-11T15:51:02.240Z,98873.97
2023-06-11T15:54:07.894Z,98875.00
2023-06-11T15:57:13.225Z,98872.59
2023-06-11T16:00:18.281Z,98876.91
2023-06-11T16:03:22.621Z,98871.25
2023-06-11T16:06:26.953Z,98878.22
2023-06-11T16:09:32.672Z,98878.75
2023-06-11T16:12:36.758Z,98876.06
2023-06-11T16:15:41.626Z,98886.53
2023-06-11T16:18:45.916Z,98891.59
2023-06-11T16:21:50.234Z,98895.63
2023-06-11T16:24:55.949Z,98891.03
2023-06-11T16:28:00.173Z,98905.75
2023-06-11T16:31:04.456Z,98907.34
2023-06-11T16:34:09.037Z,98906.69
2023-06-11T16:37:13.190Z,98910.09
2023-06-11T16:40:18.888Z,98915.75
2023-06-11T16:43:23.131Z,98910.41
2023-06-11T16:46:27.299Z,98916.13
2023-06-11T16:49:31.478Z,98927.81
2023-06-11T16:52:37.009Z,98934.47
2023-06-11T16:55:43.763Z,98933.34
2023-06-11T16:58:48.003Z,98931.75
2023-06-11T17:01:52.198Z,98937.63
2023-06-11T17:04:56.416Z,98934.63
2023-06-11T17:08:02.508Z,98933.47
2023-06-11T17:11:09.661Z,98940.69
2023-06-11T17:14:13.919Z,98932.59
2023-06-11T17:17:17.994Z,98936.84
2023-06-11T17:20:22.784Z,98931.66
2023-06-11T17:23:27.663Z,98934.31
2023-06-11T17:26:34.731Z,98946.56
2023-06-11T17:29:38.915Z,98945.97
2023-06-11T17:32:43.139Z,98950.44
2023-06-11T17:35:47.324Z,98942.31
2023-06-11T17:38:51.531Z,98947.91
2023-06-11T17:41:57.285Z,98945.31
2023-06-11T17:45:01.427Z,98948.06
2023-06-11T17:48:06.006Z,98949.59
2023-06-11T17:51:10.277Z,98950.31
2023-06-11T17:54:14.468Z,98952.00
2023-06-11T17:57:21.845Z,98955.03
2023-06-11T18:00:26.657Z,98963.16
2023-06-11T18:03:30.873Z,98964.66
2023-06-11T18:06:35.578Z,98968.19
2023-06-11T18:09:39.807Z,98965.59
2023-06-11T18:12:46.001Z,98970.97
2023-06-11T18:15:50.374Z,98978.44
2023-06-11T18:18:55.858Z,98976.44
2023-06-11T18:22:00.135Z,98974.66
2023-06-11T18:25:04.402Z,98972.34
2023-06-11T18:28:10.057Z,98975.78
2023-06-11T18:31:14.712Z,98973.97
2023-06-11T18:34:18.801Z,98973.13
2023-06-11T18:37:22.997Z,98982.50
2023-06-11T18:40:27.165Z,98990.84
2023-06-11T18:43:32.868Z,98986.72
2023-06-11T18:46:39.397Z,98990.25
2023-06-11T18:49:44.635Z,98988.13
2023-06-11T18:52:48.851Z,98983.47
2023-06-11T18:55:53.116Z,98979.75
2023-06-11T18:58:58.839Z,98987.59
2023-06-11T19:02:03.029Z,98977.47
2023-06-11T19:05:07.992Z,98985.44
2023-06-11T19:08:12.233Z,98982.91
2023-06-11T19:11:16.371Z,98986.59
2023-06-11T19:14:22.161Z,98979.31
2023-06-11T19:17:26.866Z,98989.22
2023-06-11T19:20:32.376Z,98989.59
2023-06-11T19:23:36.606Z,98987.75
2023-06-11T19:26:40.889Z,98997.53
2023-06-11T19:29:46.643Z,99003.00
2023-06-11T19:32:50.855Z,99003.47
2023-06-11T19:35:54.927Z,99001.63
2023-06-11T19:38:59.321Z,99003.06
2023-06-11T19:42:03.421Z,99008.09
2023-06-11T19:45:11.218Z,99010.75
2023-06-11T19:48:20.157Z,99017.19
2023-06-11T19:51:24.452Z,99025.75
2023-06-11T19:54:41.873Z,99018.34
2023-06-11T19:57:53.499Z,99019.84
2023-06-11T20:00:59.240Z,99020.25
2023-06-11T20:04:03.405Z,99026.72
2023-06-11T20:07:08.365Z,99023.06
2023-06-11T20:10:13.297Z,99021.19
2023-06-11T20:13:17.870Z,99019.28
2023-06-11T20:16:23.728Z,99018.88
2023-06-11T20:19:28.038Z,99005.56
2023-06-11T20:22:32.924Z,99009.09
2023-06-11T20:25:37.106Z,99009.22
2023-06-11T20:28:41.395Z,99015.75
2023-06-11T20:31:47.051Z,99004.38
2023-06-11T20:34:51.350Z,99012.91
2023-06-11T20:37:55.593Z,99014.91
2023-06-11T20:41:00.134Z,99013.22
2023-06-11T20:44:04.343Z,99015.41
2023-06-11T20:47:10.768Z,99014.09
2023-06-11T20:50:15.054Z,99012.63
2023-06-11T20:53:32.562Z,99007.53
2023-06-11T20:56:38.520Z,98997.59
2023-06-11T20:59:44.543Z,99002.94
2023-06-11T21:02:50.275Z,98999.91
2023-06-11T21:05:55.908Z,98987.81
2023-06-11T21:09:00.168Z,98997.38
2023-06-11T21:12:04.389Z,98994.25
2023-06-11T21:15:09.627Z,98990.94
2023-06-11T21:18:15.433Z,98990.22
2023-06-11T21:21:19.637Z,98996.16
2023-06-11T21:24:23.995Z,98986.13
2023-06-11T21:27:28.255Z,98989.41
2023-06-11T21:30:32.536Z,98987.34
2023-06-11T21:33:38.167Z,98983.50
2023-06-11T21:36:42.443Z,98987.34
2023-06-11T21:39:46.825Z,98976.69
2023-06-11T21:42:50.935Z,98978.63
2023-06-11T21:45:55.078Z,98991.28
2023-06-11T21:49:00.719Z,98985.53
2023-06-11T21:52:05.066Z,98978.22
2023-06-11T21:55:09.858Z,98979.84
2023-06-11T21:58:14.258Z,98982.69
2023-06-11T22:01:24.428Z,98986.69
2023-06-11T22:04:30.049Z,98993.56
2023-06-11T22:07:35.281Z,98985.97
2023-06-11T22:10:39.420Z,98991.94
2023-06-11T22:13:43.511Z,98996.59
2023-06-11T22:16:48.834Z,98985.38
2023-06-11T22:19:54.561Z,98986.06
2023-06-11T22:22:58.792Z,98971.50
2023-06-11T22:26:05.660Z,98971.41
2023-06-11T22:29:10.254Z,98969.09
2023-06-11T22:32:14.382Z,98974.03
2023-06-11T22:35:20.087Z,98965.09
2023-06-11T22:38:24.363Z,98965.41
2023-06-11T22:41:28.670Z,98959.44
2023-06-11T22:44:32.751Z,98952.31
2023-06-11T22:47:37.000Z,98945.25
2023-06-11T22:50:42.615Z,98944.19
2023-06-11T22:53:46.811Z,98943.09
2023-06-11T22:56:51.224Z,98938.78
2023-06-11T22:59:55.359Z,98929.09
2023-06-11T23:02:59.644Z,98926.38
2023-06-11T23:06:08.384Z,98924.03
2023-06-11T23:09:12.492Z,98924.84
2023-06-11T23:12:16.681Z,98920.97
2023-06-11T23:15:21.258Z,98926.03
2023-06-11T23:18:26.612Z,98925.00
2023-06-11T23:21:32.463Z,98934.00
2023-06-11T23:24:42.035Z,98924.47
2023-06-11T23:27:46.683Z,98922.75
2023-06-11T23:30:51.973Z,98923.56
2023-06-11T23:33:56.094Z,98931.28
2023-06-11T23:37:01.867Z,98936.34
2023-06-11T23:40:08.624Z,98927.03
2023-06-11T23:43:12.884Z,98922.81
2023-06-11T23:46:17.115Z,98920.03
2023-06-11T23:49:21.264Z,98922.50
2023-06-11T23:52:27.021Z,98922.81
2023-06-11T23:55:31.267Z,98919.84
2023-06-11T23:58:35.526Z,98926.19
